sensor_id;sensor_type;location;lat;lon;timestamp;P1;durP1;ratioP1;P2;durP2;ratioP2
75009;SDS011;63564;46.840;18.336;2023-02-26T00:00:07;7.93;;;2.78;;
75009;SDS011;63564;46.840;18.336;2023-02-26T00:03:14;7.57;;;2.50;;
75009;SDS011;63564;46.840;18.336;2023-02-26T00:06:14;6.47;;;2.28;;
75009;SDS011;63564;46.840;18.336;2023-02-26T00:09:14;4.85;;;2.20;;
75009;SDS011;63564;46.840;18.336;2023-02-26T00:12:15;4.93;;;2.13;;
75009;SDS011;63564;46.840;18.336;2023-02-26T00:15:15;6.00;;;2.40;;
75009;SDS011;63564;46.840;18.336;2023-02-26T00:18:17;6.07;;;2.33;;
75009;SDS011;63564;46.840;18.336;2023-02-26T00:21:18;7.53;;;2.60;;
75009;SDS011;63564;46.840;18.336;2023-02-26T00:24:19;6.38;;;2.80;;
75009;SDS011;63564;46.840;18.336;2023-02-26T00:27:20;5.77;;;2.70;;
75009;SDS011;63564;46.840;18.336;2023-02-26T00:30:20;7.10;;;2.40;;
75009;SDS011;63564;46.840;18.336;2023-02-26T00:33:21;5.22;;;2.30;;
75009;SDS011;63564;46.840;18.336;2023-02-26T00:36:23;5.63;;;2.47;;
75009;SDS011;63564;46.840;18.336;2023-02-26T00:39:35;5.45;;;2.60;;
75009;SDS011;63564;46.840;18.336;2023-02-26T00:42:43;6.57;;;2.80;;
75009;SDS011;63564;46.840;18.336;2023-02-26T00:45:46;5.77;;;2.90;;
75009;SDS011;63564;46.840;18.336;2023-02-26T00:52:19;5.30;;;2.35;;
75009;SDS011;63564;46.840;18.336;2023-02-26T00:55:24;4.72;;;1.98;;
75009;SDS011;63564;46.840;18.336;2023-02-26T00:58:24;3.50;;;2.17;;
75009;SDS011;63564;46.840;18.336;2023-02-26T01:01:25;5.47;;;2.30;;
75009;SDS011;63564;46.840;18.336;2023-02-26T01:04:25;8.33;;;4.07;;
75009;SDS011;63564;46.840;18.336;2023-02-26T01:07:26;7.67;;;3.80;;
75009;SDS011;63564;46.840;18.336;2023-02-26T01:10:29;6.28;;;2.47;;
75009;SDS011;63564;46.840;18.336;2023-02-26T01:13:30;5.88;;;2.40;;
75009;SDS011;63564;46.840;18.336;2023-02-26T01:16:32;4.47;;;2.20;;
75009;SDS011;63564;46.840;18.336;2023-02-26T01:19:47;8.45;;;2.95;;
75009;SDS011;63564;46.840;18.336;2023-02-26T01:26:26;3.37;;;1.60;;
75009;SDS011;63564;46.840;18.336;2023-02-26T01:29:28;5.65;;;2.35;;
75009;SDS011;63564;46.840;18.336;2023-02-26T01:35:48;6.85;;;2.80;;
75009;SDS011;63564;46.840;18.336;2023-02-26T01:39:06;6.47;;;3.00;;
75009;SDS011;63564;46.840;18.336;2023-02-26T01:42:19;6.32;;;2.58;;
75009;SDS011;63564;46.840;18.336;2023-02-26T01:45:25;7.47;;;3.35;;
75009;SDS011;63564;46.840;18.336;2023-02-26T01:48:37;7.63;;;3.58;;
75009;SDS011;63564;46.840;18.336;2023-02-26T01:54:55;8.00;;;3.63;;
75009;SDS011;63564;46.840;18.336;2023-02-26T01:57:56;6.78;;;2.92;;
75009;SDS011;63564;46.840;18.336;2023-02-26T02:01:00;7.40;;;3.33;;
75009;SDS011;63564;46.840;18.336;2023-02-26T02:04:01;8.13;;;3.75;;
75009;SDS011;63564;46.840;18.336;2023-02-26T02:07:04;7.47;;;3.55;;
75009;SDS011;63564;46.840;18.336;2023-02-26T02:10:05;7.57;;;4.05;;
75009;SDS011;63564;46.840;18.336;2023-02-26T02:16:35;7.43;;;4.13;;
75009;SDS011;63564;46.840;18.336;2023-02-26T02:19:49;7.57;;;3.97;;
75009;SDS011;63564;46.840;18.336;2023-02-26T02:23:09;8.57;;;3.60;;
75009;SDS011;63564;46.840;18.336;2023-02-26T02:29:50;7.82;;;3.83;;
75009;SDS011;63564;46.840;18.336;2023-02-26T02:32:57;8.93;;;4.00;;
75009;SDS011;63564;46.840;18.336;2023-02-26T02:36:25;6.75;;;2.90;;
75009;SDS011;63564;46.840;18.336;2023-02-26T02:39:38;6.75;;;3.08;;
75009;SDS011;63564;46.840;18.336;2023-02-26T02:45:59;8.87;;;3.97;;
75009;SDS011;63564;46.840;18.336;2023-02-26T02:55:17;8.38;;;4.18;;
75009;SDS011;63564;46.840;18.336;2023-02-26T02:58:22;8.37;;;3.70;;
75009;SDS011;63564;46.840;18.336;2023-02-26T03:01:27;8.77;;;4.20;;
75009;SDS011;63564;46.840;18.336;2023-02-26T03:04:28;9.38;;;4.35;;
75009;SDS011;63564;46.840;18.336;2023-02-26T03:07:30;10.33;;;4.57;;
75009;SDS011;63564;46.840;18.336;2023-02-26T03:10:34;8.75;;;4.20;;
75009;SDS011;63564;46.840;18.336;2023-02-26T03:13:35;8.68;;;4.05;;
75009;SDS011;63564;46.840;18.336;2023-02-26T03:20:02;7.78;;;3.72;;
75009;SDS011;63564;46.840;18.336;2023-02-26T03:23:10;10.20;;;4.18;;
75009;SDS011;63564;46.840;18.336;2023-02-26T03:26:33;9.23;;;3.70;;
75009;SDS011;63564;46.840;18.336;2023-02-26T03:36:10;8.00;;;3.92;;
75009;SDS011;63564;46.840;18.336;2023-02-26T03:42:18;8.63;;;3.92;;
75009;SDS011;63564;46.840;18.336;2023-02-26T03:45:29;10.27;;;4.57;;
75009;SDS011;63564;46.840;18.336;2023-02-26T03:48:33;8.95;;;4.03;;
75009;SDS011;63564;46.840;18.336;2023-02-26T03:51:35;8.48;;;4.22;;
75009;SDS011;63564;46.840;18.336;2023-02-26T03:54:40;9.32;;;4.53;;
75009;SDS011;63564;46.840;18.336;2023-02-26T03:57:48;8.97;;;4.23;;
75009;SDS011;63564;46.840;18.336;2023-02-26T04:00:51;9.77;;;4.35;;
75009;SDS011;63564;46.840;18.336;2023-02-26T04:04:08;10.93;;;4.55;;
75009;SDS011;63564;46.840;18.336;2023-02-26T04:07:30;7.63;;;3.50;;
75009;SDS011;63564;46.840;18.336;2023-02-26T04:10:50;8.05;;;3.35;;
75009;SDS011;63564;46.840;18.336;2023-02-26T04:13:54;8.00;;;3.43;;
75009;SDS011;63564;46.840;18.336;2023-02-26T04:16:55;11.13;;;4.90;;
75009;SDS011;63564;46.840;18.336;2023-02-26T04:19:55;8.30;;;4.10;;
75009;SDS011;63564;46.840;18.336;2023-02-26T04:22:55;6.10;;;2.80;;
75009;SDS011;63564;46.840;18.336;2023-02-26T04:25:56;11.07;;;5.03;;
75009;SDS011;63564;46.840;18.336;2023-02-26T04:28:56;8.63;;;4.20;;
75009;SDS011;63564;46.840;18.336;2023-02-26T04:31:57;9.80;;;4.72;;
75009;SDS011;63564;46.840;18.336;2023-02-26T04:34:57;10.15;;;4.25;;
75009;SDS011;63564;46.840;18.336;2023-02-26T04:37:58;10.37;;;4.37;;
75009;SDS011;63564;46.840;18.336;2023-02-26T04:40:58;10.13;;;4.43;;
75009;SDS011;63564;46.840;18.336;2023-02-26T04:43:59;9.80;;;4.33;;
75009;SDS011;63564;46.840;18.336;2023-02-26T04:46:59;11.48;;;5.13;;
75009;SDS011;63564;46.840;18.336;2023-02-26T04:50:00;8.38;;;3.38;;
75009;SDS011;63564;46.840;18.336;2023-02-26T04:53:00;9.03;;;4.33;;
75009;SDS011;63564;46.840;18.336;2023-02-26T04:56:01;9.77;;;4.68;;
75009;SDS011;63564;46.840;18.336;2023-02-26T04:59:01;10.25;;;4.90;;
75009;SDS011;63564;46.840;18.336;2023-02-26T05:02:02;9.93;;;4.37;;
75009;SDS011;63564;46.840;18.336;2023-02-26T05:05:02;8.73;;;3.87;;
75009;SDS011;63564;46.840;18.336;2023-02-26T05:08:03;9.10;;;3.95;;
75009;SDS011;63564;46.840;18.336;2023-02-26T05:11:04;8.93;;;3.43;;
75009;SDS011;63564;46.840;18.336;2023-02-26T05:14:04;9.20;;;4.10;;
75009;SDS011;63564;46.840;18.336;2023-02-26T05:17:04;11.47;;;4.33;;
75009;SDS011;63564;46.840;18.336;2023-02-26T05:20:05;16.70;;;7.57;;
75009;SDS011;63564;46.840;18.336;2023-02-26T05:23:09;14.75;;;6.22;;
75009;SDS011;63564;46.840;18.336;2023-02-26T05:26:09;13.67;;;6.13;;
75009;SDS011;63564;46.840;18.336;2023-02-26T05:29:09;11.33;;;5.20;;
75009;SDS011;63564;46.840;18.336;2023-02-26T05:32:10;11.50;;;4.50;;
75009;SDS011;63564;46.840;18.336;2023-02-26T05:35:11;9.73;;;4.47;;
75009;SDS011;63564;46.840;18.336;2023-02-26T05:38:11;7.20;;;3.27;;
75009;SDS011;63564;46.840;18.336;2023-02-26T05:41:11;11.40;;;5.13;;
75009;SDS011;63564;46.840;18.336;2023-02-26T05:44:12;10.27;;;4.47;;
75009;SDS011;63564;46.840;18.336;2023-02-26T05:47:12;11.00;;;5.30;;
75009;SDS011;63564;46.840;18.336;2023-02-26T05:50:12;10.05;;;4.43;;
75009;SDS011;63564;46.840;18.336;2023-02-26T05:53:13;8.67;;;4.33;;
75009;SDS011;63564;46.840;18.336;2023-02-26T05:56:13;10.63;;;5.10;;
75009;SDS011;63564;46.840;18.336;2023-02-26T05:59:15;11.13;;;4.90;;
75009;SDS011;63564;46.840;18.336;2023-02-26T06:02:15;11.02;;;5.28;;
75009;SDS011;63564;46.840;18.336;2023-02-26T06:05:16;10.10;;;4.77;;
75009;SDS011;63564;46.840;18.336;2023-02-26T06:08:17;10.13;;;4.80;;
75009;SDS011;63564;46.840;18.336;2023-02-26T06:11:17;11.03;;;4.87;;
75009;SDS011;63564;46.840;18.336;2023-02-26T06:14:17;12.23;;;5.30;;
75009;SDS011;63564;46.840;18.336;2023-02-26T06:17:18;7.83;;;3.53;;
75009;SDS011;63564;46.840;18.336;2023-02-26T06:20:18;11.70;;;5.10;;
75009;SDS011;63564;46.840;18.336;2023-02-26T06:23:19;10.80;;;4.82;;
75009;SDS011;63564;46.840;18.336;2023-02-26T06:26:19;11.20;;;5.30;;
75009;SDS011;63564;46.840;18.336;2023-02-26T06:29:20;11.73;;;5.33;;
75009;SDS011;63564;46.840;18.336;2023-02-26T06:32:20;10.57;;;4.68;;
75009;SDS011;63564;46.840;18.336;2023-02-26T06:35:21;10.10;;;4.73;;
75009;SDS011;63564;46.840;18.336;2023-02-26T06:38:22;11.53;;;4.90;;
75009;SDS011;63564;46.840;18.336;2023-02-26T06:41:22;6.25;;;3.30;;
75009;SDS011;63564;46.840;18.336;2023-02-26T06:44:23;8.10;;;3.90;;
75009;SDS011;63564;46.840;18.336;2023-02-26T06:47:23;8.40;;;3.83;;
75009;SDS011;63564;46.840;18.336;2023-02-26T06:50:24;9.13;;;3.70;;
75009;SDS011;63564;46.840;18.336;2023-02-26T06:53:24;5.20;;;2.67;;
75009;SDS011;63564;46.840;18.336;2023-02-26T06:56:24;7.10;;;3.38;;
75009;SDS011;63564;46.840;18.336;2023-02-26T06:59:25;5.93;;;2.78;;
75009;SDS011;63564;46.840;18.336;2023-02-26T07:02:25;7.77;;;3.17;;
75009;SDS011;63564;46.840;18.336;2023-02-26T07:05:26;6.83;;;3.03;;
75009;SDS011;63564;46.840;18.336;2023-02-26T07:08:26;7.30;;;2.60;;
75009;SDS011;63564;46.840;18.336;2023-02-26T07:11:27;6.10;;;3.17;;
75009;SDS011;63564;46.840;18.336;2023-02-26T07:14:27;7.40;;;3.45;;
75009;SDS011;63564;46.840;18.336;2023-02-26T07:17:27;10.20;;;4.45;;
75009;SDS011;63564;46.840;18.336;2023-02-26T07:20:28;10.00;;;4.70;;
75009;SDS011;63564;46.840;18.336;2023-02-26T07:23:28;10.10;;;5.60;;
75009;SDS011;63564;46.840;18.336;2023-02-26T07:26:29;11.40;;;5.23;;
75009;SDS011;63564;46.840;18.336;2023-02-26T07:29:29;10.40;;;4.72;;
75009;SDS011;63564;46.840;18.336;2023-02-26T07:32:30;9.50;;;3.17;;
75009;SDS011;63564;46.840;18.336;2023-02-26T07:35:31;11.97;;;5.33;;
75009;SDS011;63564;46.840;18.336;2023-02-26T07:38:31;10.40;;;3.83;;
75009;SDS011;63564;46.840;18.336;2023-02-26T07:41:31;8.50;;;3.92;;
75009;SDS011;63564;46.840;18.336;2023-02-26T07:44:32;11.43;;;5.53;;
75009;SDS011;63564;46.840;18.336;2023-02-26T07:47:32;7.80;;;3.43;;
75009;SDS011;63564;46.840;18.336;2023-02-26T07:50:33;9.70;;;3.90;;
75009;SDS011;63564;46.840;18.336;2023-02-26T07:53:33;7.95;;;3.35;;
75009;SDS011;63564;46.840;18.336;2023-02-26T07:56:34;14.73;;;7.70;;
75009;SDS011;63564;46.840;18.336;2023-02-26T07:59:34;8.87;;;4.50;;
75009;SDS011;63564;46.840;18.336;2023-02-26T08:02:35;9.40;;;4.83;;
75009;SDS011;63564;46.840;18.336;2023-02-26T08:05:35;9.63;;;3.47;;
75009;SDS011;63564;46.840;18.336;2023-02-26T08:08:36;7.70;;;3.92;;
75009;SDS011;63564;46.840;18.336;2023-02-26T08:11:36;10.73;;;4.97;;
75009;SDS011;63564;46.840;18.336;2023-02-26T08:14:39;10.80;;;3.97;;
75009;SDS011;63564;46.840;18.336;2023-02-26T08:17:42;7.93;;;4.03;;
75009;SDS011;63564;46.840;18.336;2023-02-26T08:20:42;6.00;;;2.90;;
75009;SDS011;63564;46.840;18.336;2023-02-26T08:23:43;9.68;;;3.97;;
75009;SDS011;63564;46.840;18.336;2023-02-26T08:26:43;7.90;;;4.00;;
75009;SDS011;63564;46.840;18.336;2023-02-26T08:29:45;7.97;;;3.80;;
75009;SDS011;63564;46.840;18.336;2023-02-26T08:32:46;5.63;;;2.90;;
75009;SDS011;63564;46.840;18.336;2023-02-26T08:35:47;11.23;;;3.97;;
75009;SDS011;63564;46.840;18.336;2023-02-26T08:38:48;7.97;;;3.85;;
75009;SDS011;63564;46.840;18.336;2023-02-26T08:41:48;7.47;;;3.60;;
75009;SDS011;63564;46.840;18.336;2023-02-26T08:44:48;6.50;;;3.93;;
75009;SDS011;63564;46.840;18.336;2023-02-26T08:47:49;9.27;;;4.20;;
75009;SDS011;63564;46.840;18.336;2023-02-26T08:50:51;7.65;;;4.22;;
75009;SDS011;63564;46.840;18.336;2023-02-26T08:53:51;5.27;;;3.30;;
75009;SDS011;63564;46.840;18.336;2023-02-26T08:56:51;8.80;;;4.33;;
75009;SDS011;63564;46.840;18.336;2023-02-26T08:59:54;6.60;;;3.33;;
75009;SDS011;63564;46.840;18.336;2023-02-26T09:02:55;6.30;;;2.77;;
75009;SDS011;63564;46.840;18.336;2023-02-26T09:05:55;10.57;;;4.10;;
75009;SDS011;63564;46.840;18.336;2023-02-26T09:08:56;6.43;;;3.20;;
75009;SDS011;63564;46.840;18.336;2023-02-26T09:11:56;5.85;;;3.08;;
75009;SDS011;63564;46.840;18.336;2023-02-26T09:14:57;6.30;;;3.40;;
75009;SDS011;63564;46.840;18.336;2023-02-26T09:17:59;7.35;;;3.65;;
75009;SDS011;63564;46.840;18.336;2023-02-26T09:20:59;9.67;;;4.30;;
75009;SDS011;63564;46.840;18.336;2023-02-26T09:24:00;8.52;;;3.80;;
75009;SDS011;63564;46.840;18.336;2023-02-26T09:27:00;6.87;;;3.23;;
75009;SDS011;63564;46.840;18.336;2023-02-26T09:30:03;8.20;;;4.15;;
75009;SDS011;63564;46.840;18.336;2023-02-26T09:33:04;6.72;;;3.15;;
75009;SDS011;63564;46.840;18.336;2023-02-26T09:36:05;7.43;;;2.80;;
75009;SDS011;63564;46.840;18.336;2023-02-26T09:39:05;6.73;;;3.03;;
75009;SDS011;63564;46.840;18.336;2023-02-26T09:42:27;6.82;;;3.58;;
75009;SDS011;63564;46.840;18.336;2023-02-26T09:45:37;5.97;;;3.03;;
75009;SDS011;63564;46.840;18.336;2023-02-26T09:48:42;5.93;;;2.72;;
75009;SDS011;63564;46.840;18.336;2023-02-26T09:51:45;8.93;;;4.00;;
75009;SDS011;63564;46.840;18.336;2023-02-26T09:54:49;7.60;;;3.72;;
75009;SDS011;63564;46.840;18.336;2023-02-26T09:57:54;8.27;;;3.83;;
75009;SDS011;63564;46.840;18.336;2023-02-26T10:04:37;7.13;;;3.60;;
75009;SDS011;63564;46.840;18.336;2023-02-26T10:14:03;7.55;;;4.18;;
75009;SDS011;63564;46.840;18.336;2023-02-26T10:23:44;4.95;;;2.33;;
75009;SDS011;63564;46.840;18.336;2023-02-26T10:26:50;6.83;;;3.37;;
75009;SDS011;63564;46.840;18.336;2023-02-26T10:30:03;5.53;;;2.90;;
75009;SDS011;63564;46.840;18.336;2023-02-26T10:49:51;6.63;;;2.88;;
75009;SDS011;63564;46.840;18.336;2023-02-26T10:52:54;8.27;;;4.05;;
75009;SDS011;63564;46.840;18.336;2023-02-26T10:56:00;8.13;;;3.78;;
75009;SDS011;63564;46.840;18.336;2023-02-26T10:59:06;8.00;;;3.83;;
75009;SDS011;63564;46.840;18.336;2023-02-26T11:02:11;6.72;;;3.50;;
75009;SDS011;63564;46.840;18.336;2023-02-26T11:05:30;7.10;;;3.07;;
75009;SDS011;63564;46.840;18.336;2023-02-26T11:08:39;7.78;;;3.90;;
75009;SDS011;63564;46.840;18.336;2023-02-26T11:11:47;5.93;;;3.08;;
75009;SDS011;63564;46.840;18.336;2023-02-26T11:14:52;7.40;;;3.63;;
75009;SDS011;63564;46.840;18.336;2023-02-26T11:17:53;9.43;;;4.30;;
75009;SDS011;63564;46.840;18.336;2023-02-26T11:20:57;7.10;;;3.33;;
75009;SDS011;63564;46.840;18.336;2023-02-26T11:24:14;8.63;;;4.77;;
75009;SDS011;63564;46.840;18.336;2023-02-26T11:27:20;6.43;;;3.05;;
75009;SDS011;63564;46.840;18.336;2023-02-26T11:30:24;7.97;;;3.70;;
75009;SDS011;63564;46.840;18.336;2023-02-26T11:33:27;7.57;;;3.58;;
75009;SDS011;63564;46.840;18.336;2023-02-26T11:36:33;7.80;;;3.85;;
75009;SDS011;63564;46.840;18.336;2023-02-26T11:39:38;8.80;;;4.40;;
75009;SDS011;63564;46.840;18.336;2023-02-26T11:42:41;8.90;;;4.70;;
75009;SDS011;63564;46.840;18.336;2023-02-26T11:46:03;8.25;;;3.17;;
75009;SDS011;63564;46.840;18.336;2023-02-26T11:49:07;8.47;;;4.00;;
75009;SDS011;63564;46.840;18.336;2023-02-26T11:55:20;9.63;;;3.88;;
75009;SDS011;63564;46.840;18.336;2023-02-26T11:58:27;7.82;;;3.75;;
75009;SDS011;63564;46.840;18.336;2023-02-26T12:01:30;12.93;;;5.00;;
75009;SDS011;63564;46.840;18.336;2023-02-26T12:04:30;6.65;;;3.33;;
75009;SDS011;63564;46.840;18.336;2023-02-26T12:07:31;7.93;;;3.57;;
75009;SDS011;63564;46.840;18.336;2023-02-26T12:10:58;9.23;;;4.45;;
75009;SDS011;63564;46.840;18.336;2023-02-26T12:20:45;7.32;;;3.85;;
75009;SDS011;63564;46.840;18.336;2023-02-26T12:27:02;8.07;;;3.67;;
75009;SDS011;63564;46.840;18.336;2023-02-26T12:43:53;8.47;;;4.00;;
75009;SDS011;63564;46.840;18.336;2023-02-26T12:47:11;8.15;;;3.90;;
75009;SDS011;63564;46.840;18.336;2023-02-26T13:03:34;6.68;;;3.40;;
75009;SDS011;63564;46.840;18.336;2023-02-26T13:20:15;8.27;;;4.25;;
75009;SDS011;63564;46.840;18.336;2023-02-26T13:23:20;9.25;;;4.72;;
75009;SDS011;63564;46.840;18.336;2023-02-26T13:26:24;8.43;;;3.87;;
75009;SDS011;63564;46.840;18.336;2023-02-26T13:29:39;7.93;;;4.10;;
75009;SDS011;63564;46.840;18.336;2023-02-26T13:32:45;8.80;;;4.25;;
75009;SDS011;63564;46.840;18.336;2023-02-26T13:35:49;6.38;;;2.75;;
75009;SDS011;63564;46.840;18.336;2023-02-26T13:38:56;9.02;;;4.60;;
75009;SDS011;63564;46.840;18.336;2023-02-26T13:42:14;9.27;;;3.83;;
75009;SDS011;63564;46.840;18.336;2023-02-26T13:48:55;10.18;;;4.95;;
75009;SDS011;63564;46.840;18.336;2023-02-26T13:52:03;8.35;;;3.88;;
75009;SDS011;63564;46.840;18.336;2023-02-26T13:55:04;10.37;;;5.30;;
75009;SDS011;63564;46.840;18.336;2023-02-26T14:04:51;12.90;;;4.90;;
75009;SDS011;63564;46.840;18.336;2023-02-26T14:08:41;10.57;;;4.33;;
75009;SDS011;63564;46.840;18.336;2023-02-26T14:11:24;13.73;;;5.43;;
75009;SDS011;63564;46.840;18.336;2023-02-26T14:18:00;7.40;;;3.20;;
75009;SDS011;63564;46.840;18.336;2023-02-26T14:24:28;7.65;;;3.00;;
75009;SDS011;63564;46.840;18.336;2023-02-26T14:27:44;8.55;;;3.55;;
75009;SDS011;63564;46.840;18.336;2023-02-26T14:30:49;7.97;;;3.60;;
75009;SDS011;63564;46.840;18.336;2023-02-26T14:33:59;8.53;;;3.40;;
75009;SDS011;63564;46.840;18.336;2023-02-26T14:37:06;7.20;;;3.35;;
75009;SDS011;63564;46.840;18.336;2023-02-26T14:40:15;8.95;;;4.13;;
75009;SDS011;63564;46.840;18.336;2023-02-26T14:43:19;5.95;;;2.63;;
75009;SDS011;63564;46.840;18.336;2023-02-26T14:46:34;7.03;;;3.50;;
75009;SDS011;63564;46.840;18.336;2023-02-26T14:49:36;8.82;;;3.83;;
75009;SDS011;63564;46.840;18.336;2023-02-26T14:52:50;7.22;;;3.30;;
75009;SDS011;63564;46.840;18.336;2023-02-26T15:05:42;10.23;;;5.78;;
75009;SDS011;63564;46.840;18.336;2023-02-26T15:16:11;10.30;;;4.70;;
75009;SDS011;63564;46.840;18.336;2023-02-26T15:23:02;15.05;;;5.68;;
75009;SDS011;63564;46.840;18.336;2023-02-26T15:26:05;8.85;;;4.80;;
75009;SDS011;63564;46.840;18.336;2023-02-26T15:29:09;11.23;;;4.60;;
75009;SDS011;63564;46.840;18.336;2023-02-26T15:32:24;10.38;;;4.72;;
75009;SDS011;63564;46.840;18.336;2023-02-26T15:35:27;15.45;;;7.20;;
75009;SDS011;63564;46.840;18.336;2023-02-26T15:38:38;10.82;;;5.20;;
75009;SDS011;63564;46.840;18.336;2023-02-26T15:41:47;12.43;;;4.97;;
75009;SDS011;63564;46.840;18.336;2023-02-26T15:44:49;12.13;;;6.25;;
75009;SDS011;63564;46.840;18.336;2023-02-26T15:47:54;12.18;;;5.97;;
75009;SDS011;63564;46.840;18.336;2023-02-26T15:51:01;12.35;;;5.65;;
75009;SDS011;63564;46.840;18.336;2023-02-26T15:54:05;10.90;;;5.30;;
75009;SDS011;63564;46.840;18.336;2023-02-26T15:57:06;10.77;;;5.57;;
75009;SDS011;63564;46.840;18.336;2023-02-26T16:00:09;10.52;;;5.35;;
75009;SDS011;63564;46.840;18.336;2023-02-26T16:03:24;9.50;;;4.65;;
75009;SDS011;63564;46.840;18.336;2023-02-26T16:06:37;10.73;;;5.05;;
75009;SDS011;63564;46.840;18.336;2023-02-26T16:09:43;11.77;;;5.60;;
75009;SDS011;63564;46.840;18.336;2023-02-26T16:12:46;12.20;;;5.45;;
75009;SDS011;63564;46.840;18.336;2023-02-26T16:15:48;11.85;;;5.18;;
75009;SDS011;63564;46.840;18.336;2023-02-26T16:18:49;12.07;;;6.15;;
75009;SDS011;63564;46.840;18.336;2023-02-26T16:21:52;13.13;;;6.90;;
75009;SDS011;63564;46.840;18.336;2023-02-26T16:24:56;12.07;;;6.47;;
75009;SDS011;63564;46.840;18.336;2023-02-26T16:28:26;11.15;;;6.07;;
75009;SDS011;63564;46.840;18.336;2023-02-26T16:31:30;10.50;;;5.28;;
75009;SDS011;63564;46.840;18.336;2023-02-26T16:34:40;12.10;;;5.30;;
75009;SDS011;63564;46.840;18.336;2023-02-26T16:37:42;10.32;;;4.97;;
75009;SDS011;63564;46.840;18.336;2023-02-26T16:40:59;11.18;;;4.68;;
75009;SDS011;63564;46.840;18.336;2023-02-26T16:44:43;9.95;;;4.25;;
75009;SDS011;63564;46.840;18.336;2023-02-26T16:47:30;10.30;;;4.80;;
75009;SDS011;63564;46.840;18.336;2023-02-26T16:50:32;11.10;;;5.32;;
75009;SDS011;63564;46.840;18.336;2023-02-26T16:53:42;7.93;;;3.45;;
75009;SDS011;63564;46.840;18.336;2023-02-26T16:56:49;10.67;;;4.87;;
75009;SDS011;63564;46.840;18.336;2023-02-26T16:59:58;12.48;;;5.50;;
75009;SDS011;63564;46.840;18.336;2023-02-26T17:03:11;10.90;;;5.28;;
75009;SDS011;63564;46.840;18.336;2023-02-26T17:06:16;11.75;;;5.60;;
75009;SDS011;63564;46.840;18.336;2023-02-26T17:09:36;11.70;;;5.63;;
75009;SDS011;63564;46.840;18.336;2023-02-26T17:12:45;11.40;;;5.90;;
75009;SDS011;63564;46.840;18.336;2023-02-26T17:15:48;11.30;;;4.97;;
75009;SDS011;63564;46.840;18.336;2023-02-26T17:18:50;12.32;;;5.82;;
75009;SDS011;63564;46.840;18.336;2023-02-26T17:21:52;12.65;;;6.07;;
75009;SDS011;63564;46.840;18.336;2023-02-26T17:24:56;11.98;;;5.55;;
75009;SDS011;63564;46.840;18.336;2023-02-26T17:27:57;12.32;;;5.75;;
75009;SDS011;63564;46.840;18.336;2023-02-26T17:30:58;15.20;;;6.47;;
75009;SDS011;63564;46.840;18.336;2023-02-26T17:34:00;13.25;;;6.30;;
75009;SDS011;63564;46.840;18.336;2023-02-26T17:37:01;14.20;;;6.78;;
75009;SDS011;63564;46.840;18.336;2023-02-26T17:40:16;13.70;;;6.97;;
75009;SDS011;63564;46.840;18.336;2023-02-26T17:43:18;14.98;;;7.25;;
75009;SDS011;63564;46.840;18.336;2023-02-26T17:46:21;15.57;;;6.88;;
75009;SDS011;63564;46.840;18.336;2023-02-26T17:49:22;14.48;;;6.90;;
75009;SDS011;63564;46.840;18.336;2023-02-26T17:52:23;15.67;;;7.00;;
75009;SDS011;63564;46.840;18.336;2023-02-26T17:55:24;12.93;;;6.00;;
75009;SDS011;63564;46.840;18.336;2023-02-26T17:58:31;10.02;;;5.22;;
75009;SDS011;63564;46.840;18.336;2023-02-26T18:01:33;10.83;;;4.90;;
75009;SDS011;63564;46.840;18.336;2023-02-26T18:04:35;10.70;;;4.40;;
75009;SDS011;63564;46.840;18.336;2023-02-26T18:07:36;8.82;;;3.92;;
75009;SDS011;63564;46.840;18.336;2023-02-26T18:10:38;13.23;;;6.80;;
75009;SDS011;63564;46.840;18.336;2023-02-26T18:13:40;16.95;;;8.00;;
75009;SDS011;63564;46.840;18.336;2023-02-26T18:16:42;19.27;;;8.65;;
75009;SDS011;63564;46.840;18.336;2023-02-26T18:19:44;15.48;;;7.20;;
75009;SDS011;63564;46.840;18.336;2023-02-26T18:22:48;14.87;;;7.93;;
75009;SDS011;63564;46.840;18.336;2023-02-26T18:25:50;14.55;;;7.13;;
75009;SDS011;63564;46.840;18.336;2023-02-26T18:28:53;16.00;;;7.25;;
75009;SDS011;63564;46.840;18.336;2023-02-26T18:31:57;14.55;;;6.85;;
75009;SDS011;63564;46.840;18.336;2023-02-26T18:34:59;9.03;;;4.17;;
75009;SDS011;63564;46.840;18.336;2023-02-26T18:38:00;15.30;;;7.40;;
75009;SDS011;63564;46.840;18.336;2023-02-26T18:41:04;15.48;;;6.90;;
75009;SDS011;63564;46.840;18.336;2023-02-26T18:44:05;15.37;;;6.73;;
75009;SDS011;63564;46.840;18.336;2023-02-26T18:47:06;15.10;;;7.78;;
75009;SDS011;63564;46.840;18.336;2023-02-26T18:50:15;17.02;;;8.25;;
75009;SDS011;63564;46.840;18.336;2023-02-26T18:53:17;15.77;;;7.40;;
75009;SDS011;63564;46.840;18.336;2023-02-26T18:56:22;15.27;;;7.25;;
75009;SDS011;63564;46.840;18.336;2023-02-26T18:59:23;14.05;;;6.78;;
75009;SDS011;63564;46.840;18.336;2023-02-26T19:02:24;13.60;;;6.85;;
75009;SDS011;63564;46.840;18.336;2023-02-26T19:05:25;14.27;;;7.22;;
75009;SDS011;63564;46.840;18.336;2023-02-26T19:08:26;16.70;;;8.10;;
75009;SDS011;63564;46.840;18.336;2023-02-26T19:11:29;14.65;;;6.57;;
75009;SDS011;63564;46.840;18.336;2023-02-26T19:14:30;13.20;;;6.60;;
75009;SDS011;63564;46.840;18.336;2023-02-26T19:17:31;18.15;;;9.05;;
75009;SDS011;63564;46.840;18.336;2023-02-26T19:20:32;20.38;;;9.07;;
75009;SDS011;63564;46.840;18.336;2023-02-26T19:23:33;18.35;;;8.93;;
75009;SDS011;63564;46.840;18.336;2023-02-26T19:26:34;16.07;;;8.00;;
75009;SDS011;63564;46.840;18.336;2023-02-26T19:29:35;15.52;;;8.35;;
75009;SDS011;63564;46.840;18.336;2023-02-26T19:32:38;16.30;;;8.15;;
75009;SDS011;63564;46.840;18.336;2023-02-26T19:35:39;14.33;;;7.30;;
75009;SDS011;63564;46.840;18.336;2023-02-26T19:38:40;15.15;;;6.90;;
75009;SDS011;63564;46.840;18.336;2023-02-26T19:41:46;15.93;;;8.02;;
75009;SDS011;63564;46.840;18.336;2023-02-26T19:44:48;15.77;;;7.70;;
75009;SDS011;63564;46.840;18.336;2023-02-26T19:47:49;16.35;;;7.95;;
75009;SDS011;63564;46.840;18.336;2023-02-26T19:50:49;17.27;;;7.93;;
75009;SDS011;63564;46.840;18.336;2023-02-26T19:53:52;14.50;;;7.38;;
75009;SDS011;63564;46.840;18.336;2023-02-26T19:56:53;15.35;;;7.32;;
75009;SDS011;63564;46.840;18.336;2023-02-26T19:59:54;13.83;;;6.63;;
75009;SDS011;63564;46.840;18.336;2023-02-26T20:02:55;14.32;;;6.78;;
75009;SDS011;63564;46.840;18.336;2023-02-26T20:05:56;15.83;;;7.37;;
75009;SDS011;63564;46.840;18.336;2023-02-26T20:08:57;14.98;;;6.80;;
75009;SDS011;63564;46.840;18.336;2023-02-26T20:11:58;13.93;;;6.80;;
75009;SDS011;63564;46.840;18.336;2023-02-26T20:15:00;15.57;;;7.03;;
75009;SDS011;63564;46.840;18.336;2023-02-26T20:18:01;15.45;;;7.10;;
75009;SDS011;63564;46.840;18.336;2023-02-26T20:21:05;14.05;;;7.25;;
75009;SDS011;63564;46.840;18.336;2023-02-26T20:24:08;15.80;;;7.20;;
75009;SDS011;63564;46.840;18.336;2023-02-26T20:27:09;16.10;;;8.18;;
75009;SDS011;63564;46.840;18.336;2023-02-26T20:30:10;15.03;;;7.87;;
75009;SDS011;63564;46.840;18.336;2023-02-26T20:33:11;16.00;;;8.27;;
75009;SDS011;63564;46.840;18.336;2023-02-26T20:36:14;14.65;;;7.43;;
75009;SDS011;63564;46.840;18.336;2023-02-26T20:39:15;13.35;;;6.03;;
75009;SDS011;63564;46.840;18.336;2023-02-26T20:42:18;11.90;;;5.90;;
75009;SDS011;63564;46.840;18.336;2023-02-26T20:45:19;12.43;;;4.97;;
75009;SDS011;63564;46.840;18.336;2023-02-26T20:48:22;13.48;;;5.80;;
75009;SDS011;63564;46.840;18.336;2023-02-26T20:51:23;12.35;;;5.10;;